KIGX

Horace Williams Airport

Chapel Hill, North Carolina, USA
METAR KIGX 200056Z AUTO 00000KT 10SM CLR 02/M08 A3016 RMK AO2 SLP216 T00171078
Observed Flight Rules
Jan-20 @ 00:56 UTC (25 minutes ago) Visual Flight Rules
Wind Visibility Clouds
Calm 10 miles
  • Clear skies
Temperatures Readings
Current 2°C / 36°F
Dewpoint -8°C / 18°F
Humidity 48%
Altimeter 30.16" Hg
Pressure 1021.6 hPa
Elevation 155
METAR KIGX 200056Z AUTO 00000KT 10SM CLR 02/M08 A3016 RMK AO2 SLP216 T00171078
Observed Flight Rules
Jan-20 @ 00:56 UTC
(25 minutes ago)
VFR
Wind Visibility
Calm 10 miles
Clouds
  • Clear skies
Temperature Dewpoint
2°C / 36°F -8°C / 18°F
Humidity Altimeter Pressure
48% 30.16" Hg 1021.6 hPa